Terminal Aerodrome Forecast
Issued by NWS Nashville, TN

Home | Current Version | Previous Version | Text Only | Print | Product List | Glossary On
Versions: 1 2 3 4 5 6 7 8 9 10 11 12 13 14 15 16 17 18 19 20 21 22 23 24 25 26 27 28 29 30 31 32 33
000
FTUS44 KOHX 022325
TAFCSV
TAF
KCSV 022325Z 0300/0324 23008KT P6SM VCTS SCT020 BKN040CB
     FM030300 25006KT P6SM VCSH BKN040 OVC070
     FM030800 24006KT 5SM BR OVC025
     FM030900 24006KT 4SM BR OVC010
     FM031800 25010KT P6SM VCTS BKN015CB=

USA.gov is the U.S. government's official web portal to all federal, state and local government web resources and services.